Cyclone, Texas
Current Conditions -  °F | °C
As of 11:55 PM on Saturday 20 Dec 2014 (Local Time) from KT35 Reporting Station
Overcast Overcast  
Wind Chill:   Ceiling: 1600
Heat Index:   Visibility: 10mi
Dew Point:   Wind: 3mph
Humidity: 90%   Direction: 120°ESE
Pressure: 30.18"   Gusts: NA
Location:  30.9882°N, 97.103°W
Report Text: KT35 210555Z AUTO 12003KT 10SM SCT008 OVC016 10/08 A3018 RMK AO2 T00950080 10105 20095 401080090
Loading
Personal Weather Stations






























Interactive Weather Map New forecast layout! Learn more

10-Day Weather Forecast

Advertisements
Track Severe Weather on mobile